sensor_id;sensor_type;location;lat;lon;timestamp;pressure;altitude;pressure_sealevel;temperature;humidity
50696;BME280;36665;51.786;21.594;2023-04-25T00:01:10;96411.19;;;12.09;50.68
50696;BME280;36665;51.786;21.594;2023-04-25T00:09:36;96366.91;;;11.98;50.54
50696;BME280;36665;51.786;21.594;2023-04-25T00:18:00;96324.63;;;11.87;50.75
50696;BME280;36665;51.786;21.594;2023-04-25T00:26:23;96297.23;;;11.79;50.63
50696;BME280;36665;51.786;21.594;2023-04-25T00:34:46;96258.55;;;11.70;50.65
50696;BME280;36665;51.786;21.594;2023-04-25T00:43:09;96189.70;;;11.51;50.57
50696;BME280;36665;51.786;21.594;2023-04-25T00:51:33;96120.59;;;11.33;50.63
50696;BME280;36665;51.786;21.594;2023-04-25T00:59:58;96035.55;;;11.10;50.58
50696;BME280;36665;51.786;21.594;2023-04-25T01:08:24;95896.63;;;10.73;50.51
50696;BME280;36665;51.786;21.594;2023-04-25T01:16:48;95765.77;;;10.38;50.42
50696;BME280;36665;51.786;21.594;2023-04-25T01:25:11;95657.55;;;10.09;50.25
50696;BME280;36665;51.786;21.594;2023-04-25T01:33:35;95554.45;;;9.81;50.46
50696;BME280;36665;51.786;21.594;2023-04-25T01:41:59;95494.98;;;9.66;50.46
50696;BME280;36665;51.786;21.594;2023-04-25T01:50:22;95455.12;;;9.55;50.45
50696;BME280;36665;51.786;21.594;2023-04-25T01:58:46;95413.00;;;9.44;50.44
50696;BME280;36665;51.786;21.594;2023-04-25T02:07:15;95379.33;;;9.35;50.45
50696;BME280;36665;51.786;21.594;2023-04-25T02:15:48;95326.21;;;9.21;50.45
50696;BME280;36665;51.786;21.594;2023-04-25T02:24:14;95308.58;;;9.17;50.41
50696;BME280;36665;51.786;21.594;2023-04-25T02:32:39;95333.11;;;9.23;50.54
50696;BME280;36665;51.786;21.594;2023-04-25T02:41:04;95370.00;;;9.33;50.46
50696;BME280;36665;51.786;21.594;2023-04-25T02:49:28;95421.32;;;9.47;50.65
50696;BME280;36665;51.786;21.594;2023-04-25T02:57:51;95484.36;;;9.63;50.63
50696;BME280;36665;51.786;21.594;2023-04-25T03:06:25;95495.84;;;9.68;50.56
50696;BME280;36665;51.786;21.594;2023-04-25T03:14:48;95496.58;;;9.67;50.79
50696;BME280;36665;51.786;21.594;2023-04-25T03:23:11;95504.48;;;9.70;50.76
50696;BME280;36665;51.786;21.594;2023-04-25T03:31:37;95501.82;;;9.67;50.84
50696;BME280;36665;51.786;21.594;2023-04-25T03:40:00;95493.05;;;9.66;50.87
50696;BME280;36665;51.786;21.594;2023-04-25T03:48:37;95522.75;;;9.73;50.95
50696;BME280;36665;51.786;21.594;2023-04-25T03:57:02;95546.95;;;9.80;50.96
50696;BME280;36665;51.786;21.594;2023-04-25T04:05:27;95600.06;;;9.94;51.16
50696;BME280;36665;51.786;21.594;2023-04-25T04:13:51;95827.07;;;10.55;51.39
50696;BME280;36665;51.786;21.594;2023-04-25T04:22:15;95915.57;;;10.79;51.39
50696;BME280;36665;51.786;21.594;2023-04-25T04:30:39;95791.52;;;10.45;51.29
50696;BME280;36665;51.786;21.594;2023-04-25T04:39:05;95701.23;;;10.20;51.47
50696;BME280;36665;51.786;21.594;2023-04-25T04:47:50;95672.80;;;10.13;51.62
50696;BME280;36665;51.786;21.594;2023-04-25T04:56:32;95672.42;;;10.13;51.54
50696;BME280;36665;51.786;21.594;2023-04-25T05:05:15;95688.05;;;10.17;51.51
50696;BME280;36665;51.786;21.594;2023-04-25T05:14:00;95744.64;;;10.32;51.78
50696;BME280;36665;51.786;21.594;2023-04-25T05:22:32;95816.65;;;10.50;51.74
50696;BME280;36665;51.786;21.594;2023-04-25T05:31:10;95859.07;;;10.62;51.63
50696;BME280;36665;51.786;21.594;2023-04-25T05:39:51;95919.25;;;10.77;51.84
50696;BME280;36665;51.786;21.594;2023-04-25T05:48:47;95957.59;;;10.87;52.01
50696;BME280;36665;51.786;21.594;2023-04-25T05:57:28;95968.65;;;10.90;52.25
50696;BME280;36665;51.786;21.594;2023-04-25T06:05:51;95938.67;;;10.81;52.28
50696;BME280;36665;51.786;21.594;2023-04-25T06:14:15;95920.25;;;10.76;52.12
50696;BME280;36665;51.786;21.594;2023-04-25T06:22:42;95927.75;;;10.78;52.23
50696;BME280;36665;51.786;21.594;2023-04-25T06:31:06;95922.54;;;10.76;52.49
50696;BME280;36665;51.786;21.594;2023-04-25T06:39:30;95931.54;;;10.78;52.56
50696;BME280;36665;51.786;21.594;2023-04-25T06:47:53;95945.27;;;10.82;52.53
50696;BME280;36665;51.786;21.594;2023-04-25T06:56:16;95924.73;;;10.75;52.47
50696;BME280;36665;51.786;21.594;2023-04-25T07:04:49;95902.61;;;10.70;52.59
50696;BME280;36665;51.786;21.594;2023-04-25T07:13:13;95904.35;;;10.70;52.72
50696;BME280;36665;51.786;21.594;2023-04-25T07:21:37;95901.11;;;10.68;52.72
50696;BME280;36665;51.786;21.594;2023-04-25T07:30:01;95879.38;;;10.62;52.69
50696;BME280;36665;51.786;21.594;2023-04-25T07:38:26;95873.19;;;10.61;53.01
50696;BME280;36665;51.786;21.594;2023-04-25T07:46:50;95858.56;;;10.57;52.96
50696;BME280;36665;51.786;21.594;2023-04-25T07:55:15;95831.31;;;10.49;53.00
50696;BME280;36665;51.786;21.594;2023-04-25T08:04:05;95830.74;;;10.49;52.93
50696;BME280;36665;51.786;21.594;2023-04-25T08:12:40;95857.59;;;10.56;52.87
50696;BME280;36665;51.786;21.594;2023-04-25T08:21:03;95843.82;;;10.52;52.90
50696;BME280;36665;51.786;21.594;2023-04-25T08:29:27;95818.27;;;10.45;53.13
50696;BME280;36665;51.786;21.594;2023-04-25T08:37:51;95785.63;;;10.36;53.29
50696;BME280;36665;51.786;21.594;2023-04-25T08:46:19;95759.27;;;10.28;53.13
50696;BME280;36665;51.786;21.594;2023-04-25T08:55:12;95737.47;;;10.22;53.53
50696;BME280;36665;51.786;21.594;2023-04-25T09:03:37;95725.81;;;10.18;53.47
50696;BME280;36665;51.786;21.594;2023-04-25T09:12:01;95721.37;;;10.18;53.66
50696;BME280;36665;51.786;21.594;2023-04-25T09:20:26;95732.77;;;10.20;53.64
50696;BME280;36665;51.786;21.594;2023-04-25T09:29:05;95729.17;;;10.18;53.68
50696;BME280;36665;51.786;21.594;2023-04-25T09:37:35;95653.33;;;9.98;53.62
50696;BME280;36665;51.786;21.594;2023-04-25T09:46:34;95566.38;;;9.74;53.69
50696;BME280;36665;51.786;21.594;2023-04-25T09:55:03;95519.14;;;9.62;53.71
50696;BME280;36665;51.786;21.594;2023-04-25T10:03:30;95469.94;;;9.48;53.69
50696;BME280;36665;51.786;21.594;2023-04-25T10:12:14;95430.96;;;9.37;53.90
50696;BME280;36665;51.786;21.594;2023-04-25T10:20:40;95408.95;;;9.31;53.74
50696;BME280;36665;51.786;21.594;2023-04-25T10:29:03;95364.63;;;9.19;53.81
50696;BME280;36665;51.786;21.594;2023-04-25T10:37:27;95313.89;;;9.05;53.88
50696;BME280;36665;51.786;21.594;2023-04-25T10:45:53;95273.46;;;8.95;54.02
50696;BME280;36665;51.786;21.594;2023-04-25T10:54:17;95249.18;;;8.88;54.03
50696;BME280;36665;51.786;21.594;2023-04-25T11:02:52;95227.00;;;8.82;54.06
50696;BME280;36665;51.786;21.594;2023-04-25T11:11:19;95219.90;;;8.79;54.26
50696;BME280;36665;51.786;21.594;2023-04-25T11:19:42;95225.23;;;8.81;54.21
50696;BME280;36665;51.786;21.594;2023-04-25T11:28:05;95237.92;;;8.84;54.17
50696;BME280;36665;51.786;21.594;2023-04-25T11:36:28;95273.17;;;8.93;54.32
50696;BME280;36665;51.786;21.594;2023-04-25T11:44:53;95270.67;;;8.93;54.27
50696;BME280;36665;51.786;21.594;2023-04-25T11:53:17;95284.35;;;8.94;54.51
50696;BME280;36665;51.786;21.594;2023-04-25T12:01:49;95266.20;;;8.91;54.66
50696;BME280;36665;51.786;21.594;2023-04-25T12:10:15;95248.73;;;8.86;54.65
50696;BME280;36665;51.786;21.594;2023-04-25T12:18:38;95275.67;;;8.91;54.56
50696;BME280;36665;51.786;21.594;2023-04-25T12:27:05;95317.52;;;9.03;54.88
50696;BME280;36665;51.786;21.594;2023-04-25T12:35:29;95323.84;;;9.04;54.87
50696;BME280;36665;51.786;21.594;2023-04-25T12:43:53;95306.38;;;8.98;55.02
50696;BME280;36665;51.786;21.594;2023-04-25T12:52:16;95322.84;;;9.03;55.17
50696;BME280;36665;51.786;21.594;2023-04-25T13:00:40;95364.33;;;9.14;55.28
50696;BME280;36665;51.786;21.594;2023-04-25T13:09:03;95428.20;;;9.31;55.36
50696;BME280;36665;51.786;21.594;2023-04-25T13:17:27;95498.22;;;9.49;55.25
50696;BME280;36665;51.786;21.594;2023-04-25T13:25:51;95509.29;;;9.51;55.35
50696;BME280;36665;51.786;21.594;2023-04-25T13:34:15;95531.02;;;9.58;55.38
50696;BME280;36665;51.786;21.594;2023-04-25T13:42:39;95539.27;;;9.59;55.43
50696;BME280;36665;51.786;21.594;2023-04-25T13:51:03;95526.36;;;9.54;55.61
50696;BME280;36665;51.786;21.594;2023-04-25T13:59:26;95530.10;;;9.55;55.75
50696;BME280;36665;51.786;21.594;2023-04-25T14:07:50;95533.71;;;9.55;55.73
50696;BME280;36665;51.786;21.594;2023-04-25T14:16:15;95503.25;;;9.47;55.81
50696;BME280;36665;51.786;21.594;2023-04-25T14:24:40;95454.38;;;9.34;55.81
50696;BME280;36665;51.786;21.594;2023-04-25T14:33:03;95392.01;;;9.18;55.77
50696;BME280;36665;51.786;21.594;2023-04-25T14:41:27;95338.06;;;9.03;55.92
50696;BME280;36665;51.786;21.594;2023-04-25T14:58:33;95264.20;;;8.84;56.15
50696;BME280;36665;51.786;21.594;2023-04-25T15:06:56;95213.39;;;8.70;55.86
50696;BME280;36665;51.786;21.594;2023-04-25T15:15:20;95185.27;;;8.62;56.04
50696;BME280;36665;51.786;21.594;2023-04-25T15:23:48;95169.35;;;8.58;56.05
50696;BME280;36665;51.786;21.594;2023-04-25T15:32:12;95170.35;;;8.58;56.14
50696;BME280;36665;51.786;21.594;2023-04-25T15:40:35;95172.33;;;8.58;56.18
50696;BME280;36665;51.786;21.594;2023-04-25T15:48:58;95138.42;;;8.49;56.16
50696;BME280;36665;51.786;21.594;2023-04-25T15:57:21;95104.50;;;8.39;56.24
50696;BME280;36665;51.786;21.594;2023-04-25T16:05:44;95108.25;;;8.40;56.37
50696;BME280;36665;51.786;21.594;2023-04-25T16:14:07;95105.30;;;8.38;56.41
50696;BME280;36665;51.786;21.594;2023-04-25T16:22:30;95056.52;;;8.25;56.44
50696;BME280;36665;51.786;21.594;2023-04-25T16:30:54;95033.46;;;8.19;56.51
50696;BME280;36665;51.786;21.594;2023-04-25T16:39:17;95013.17;;;8.14;56.48
50696;BME280;36665;51.786;21.594;2023-04-25T16:47:40;95015.53;;;8.13;56.61
50696;BME280;36665;51.786;21.594;2023-04-25T16:56:04;95027.93;;;8.17;56.76
50696;BME280;36665;51.786;21.594;2023-04-25T17:04:29;95043.17;;;8.21;56.72
50696;BME280;36665;51.786;21.594;2023-04-25T17:12:52;95047.55;;;8.22;56.75
50696;BME280;36665;51.786;21.594;2023-04-25T17:21:16;94972.52;;;8.01;56.85
50696;BME280;36665;51.786;21.594;2023-04-25T17:29:40;94899.70;;;7.82;56.95
50696;BME280;36665;51.786;21.594;2023-04-25T17:38:03;94848.16;;;7.68;56.87
50696;BME280;36665;51.786;21.594;2023-04-25T17:46:26;94797.17;;;7.54;56.93
50696;BME280;36665;51.786;21.594;2023-04-25T17:54:51;94756.80;;;7.43;56.88
50696;BME280;36665;51.786;21.594;2023-04-25T18:03:14;94737.91;;;7.38;57.16
50696;BME280;36665;51.786;21.594;2023-04-25T18:11:38;94704.69;;;7.28;57.07
50696;BME280;36665;51.786;21.594;2023-04-25T18:20:01;94649.70;;;7.13;57.21
50696;BME280;36665;51.786;21.594;2023-04-25T18:28:24;94605.86;;;7.00;57.14
50696;BME280;36665;51.786;21.594;2023-04-25T18:36:48;94570.52;;;6.91;57.26
50696;BME280;36665;51.786;21.594;2023-04-25T18:45:11;94554.77;;;6.86;57.34
50696;BME280;36665;51.786;21.594;2023-04-25T18:53:34;94537.58;;;6.82;57.23
50696;BME280;36665;51.786;21.594;2023-04-25T19:01:57;94508.06;;;6.73;57.36
50696;BME280;36665;51.786;21.594;2023-04-25T19:10:23;94463.42;;;6.61;57.59
50696;BME280;36665;51.786;21.594;2023-04-25T19:18:47;94438.48;;;6.54;57.42
50696;BME280;36665;51.786;21.594;2023-04-25T19:27:10;94418.34;;;6.49;57.57
50696;BME280;36665;51.786;21.594;2023-04-25T19:35:33;94407.88;;;6.45;57.60
50696;BME280;36665;51.786;21.594;2023-04-25T19:43:58;94398.64;;;6.43;57.73
50696;BME280;36665;51.786;21.594;2023-04-25T19:52:22;94391.09;;;6.40;57.76
50696;BME280;36665;51.786;21.594;2023-04-25T20:00:45;94381.67;;;6.38;57.74
50696;BME280;36665;51.786;21.594;2023-04-25T20:09:09;94385.89;;;6.39;57.68
50696;BME280;36665;51.786;21.594;2023-04-25T20:17:33;94390.19;;;6.39;57.85
50696;BME280;36665;51.786;21.594;2023-04-25T20:25:56;94396.07;;;6.41;57.78
50696;BME280;36665;51.786;21.594;2023-04-25T20:34:20;94396.08;;;6.41;57.91
50696;BME280;36665;51.786;21.594;2023-04-25T20:42:43;94392.10;;;6.39;57.98
50696;BME280;36665;51.786;21.594;2023-04-25T20:51:09;94392.67;;;6.39;58.10
50696;BME280;36665;51.786;21.594;2023-04-25T20:59:32;94388.63;;;6.38;58.10
50696;BME280;36665;51.786;21.594;2023-04-25T21:07:55;94386.88;;;6.38;58.14
50696;BME280;36665;51.786;21.594;2023-04-25T21:16:19;94363.45;;;6.31;58.33
50696;BME280;36665;51.786;21.594;2023-04-25T21:24:43;94355.43;;;6.28;58.32
50696;BME280;36665;51.786;21.594;2023-04-25T21:33:05;94365.70;;;6.30;58.45
50696;BME280;36665;51.786;21.594;2023-04-25T21:41:29;94381.70;;;6.35;58.50
50696;BME280;36665;51.786;21.594;2023-04-25T21:49:52;94395.74;;;6.39;58.53
50696;BME280;36665;51.786;21.594;2023-04-25T21:58:15;94404.47;;;6.41;58.58
50696;BME280;36665;51.786;21.594;2023-04-25T22:06:38;94418.31;;;6.44;58.74
50696;BME280;36665;51.786;21.594;2023-04-25T22:15:01;94427.07;;;6.46;58.89
50696;BME280;36665;51.786;21.594;2023-04-25T22:23:25;94429.48;;;6.48;58.75
50696;BME280;36665;51.786;21.594;2023-04-25T22:31:48;94433.96;;;6.48;58.97
50696;BME280;36665;51.786;21.594;2023-04-25T22:40:12;94434.69;;;6.48;59.12
50696;BME280;36665;51.786;21.594;2023-04-25T22:48:35;94445.36;;;6.50;59.10
50696;BME280;36665;51.786;21.594;2023-04-25T22:56:58;94454.95;;;6.52;59.19
50696;BME280;36665;51.786;21.594;2023-04-25T23:05:21;94461.77;;;6.55;59.25
50696;BME280;36665;51.786;21.594;2023-04-25T23:13:46;94450.81;;;6.51;59.27
50696;BME280;36665;51.786;21.594;2023-04-25T23:22:09;94445.44;;;6.49;59.46
50696;BME280;36665;51.786;21.594;2023-04-25T23:30:32;94452.75;;;6.51;59.45
50696;BME280;36665;51.786;21.594;2023-04-25T23:38:56;94485.10;;;6.59;59.54
50696;BME280;36665;51.786;21.594;2023-04-25T23:47:19;94494.21;;;6.61;59.81
50696;BME280;36665;51.786;21.594;2023-04-25T23:55:43;94478.61;;;6.56;59.63
